createdAt,value
2023-02-11T00:03:40.293Z,100793.98
2023-02-11T00:08:49.865Z,100784.47
2023-02-11T00:13:57.253Z,100776.02
2023-02-11T00:19:06.803Z,100769.91
2023-02-11T00:24:14.670Z,100759.00
2023-02-11T00:29:22.254Z,100751.73
2023-02-11T00:34:30.915Z,100753.34
2023-02-11T00:39:40.341Z,100745.34
2023-02-11T00:44:48.541Z,100751.56
2023-02-11T00:49:56.684Z,100748.12
2023-02-11T00:55:03.877Z,100731.00
2023-02-11T01:00:11.497Z,100723.48
2023-02-11T01:05:17.423Z,100709.73
2023-02-11T01:10:27.076Z,100699.79
2023-02-11T01:15:34.905Z,100676.41
2023-02-11T01:20:42.501Z,100662.90
2023-02-11T01:25:51.311Z,100659.09
2023-02-11T01:30:59.629Z,100661.41
2023-02-11T01:36:09.173Z,100659.84
2023-02-11T01:41:18.558Z,100647.78
2023-02-11T01:46:37.924Z,100634.40
2023-02-11T01:51:48.783Z,100626.00
2023-02-11T01:57:16.942Z,100608.80
2023-02-11T02:02:28.720Z,100602.94
2023-02-11T02:07:43.317Z,100607.84
2023-02-11T02:12:51.215Z,100598.44
2023-02-11T02:18:13.316Z,100602.59
2023-02-11T02:24:18.216Z,100593.66
2023-02-11T02:30:09.862Z,100604.73
2023-02-11T02:35:30.405Z,100614.89
2023-02-11T02:40:42.406Z,100611.81
2023-02-11T02:45:49.992Z,100597.59
2023-02-11T02:51:09.354Z,100582.70
2023-02-11T02:56:26.793Z,100569.05
2023-02-11T03:01:37.944Z,100560.98
2023-02-11T03:06:53.417Z,100551.45
2023-02-11T03:12:02.324Z,100537.84
2023-02-11T03:17:12.017Z,100518.52
2023-02-11T03:22:26.730Z,100497.92
2023-02-11T03:27:41.743Z,100478.63
2023-02-11T03:32:56.611Z,100464.70
2023-02-11T03:38:10.035Z,100451.74
2023-02-11T03:43:22.924Z,100438.31
2023-02-11T03:48:41.081Z,100440.84
2023-02-11T03:53:52.456Z,100449.86
2023-02-11T03:59:00.738Z,100453.98
2023-02-11T04:04:08.770Z,100449.69
2023-02-11T04:09:17.766Z,100435.69
2023-02-11T04:14:25.233Z,100416.91
2023-02-11T04:19:33.518Z,100403.85
2023-02-11T04:24:44.341Z,100397.14
2023-02-11T04:29:52.604Z,100382.84
2023-02-11T04:34:59.885Z,100360.42
2023-02-11T04:40:09.396Z,100353.36
2023-02-11T04:45:16.979Z,100352.48
2023-02-11T04:50:24.415Z,100353.19
2023-02-11T04:55:31.939Z,100350.79
2023-02-11T05:00:39.439Z,100364.63
2023-02-11T05:05:47.526Z,100380.43
2023-02-11T05:10:55.053Z,100362.04
2023-02-11T05:16:07.832Z,100364.69
2023-02-11T05:21:20.805Z,100359.45
2023-02-11T05:26:28.829Z,100355.77
2023-02-11T05:31:36.435Z,100355.89
2023-02-11T05:36:44.324Z,100361.65
2023-02-11T05:41:51.715Z,100369.20
2023-02-11T05:47:01.419Z,100362.58
2023-02-11T05:52:09.495Z,100365.79
2023-02-11T05:57:18.786Z,100375.52
2023-02-11T06:02:29.830Z,100386.52
2023-02-11T06:07:37.459Z,100378.20
2023-02-11T06:12:45.866Z,100365.77
2023-02-11T06:17:54.256Z,100330.05
2023-02-11T06:23:01.513Z,100266.10
2023-02-11T06:28:07.785Z,100235.08
2023-02-11T06:33:15.216Z,100246.64
2023-02-11T06:38:20.933Z,100251.10
2023-02-11T06:43:28.704Z,100256.79
2023-02-11T06:48:36.573Z,100257.80
2023-02-11T06:53:48.969Z,100255.47
2023-02-11T06:59:00.249Z,100269.77
2023-02-11T07:04:08.618Z,100288.53
2023-02-11T07:09:17.175Z,100288.73
2023-02-11T07:20:19.650Z,100279.70
2023-02-11T07:25:23.864Z,100285.16
2023-02-11T07:30:28.006Z,100280.55
2023-02-11T07:35:32.393Z,100269.30
2023-02-11T07:40:36.464Z,100258.21
2023-02-11T07:45:40.687Z,100244.20
2023-02-11T07:50:44.740Z,100237.27
2023-02-11T07:55:49.329Z,100248.09
2023-02-11T08:00:53.691Z,100248.34
2023-02-11T08:05:57.547Z,100245.63
2023-02-11T08:11:07.369Z,100246.55
2023-02-11T08:16:19.240Z,100236.37
2023-02-11T08:21:23.725Z,100229.70
2023-02-11T08:26:28.988Z,100228.84
2023-02-11T08:31:36.546Z,100225.12
2023-02-11T08:36:44.756Z,100220.00
2023-02-11T08:41:49.780Z,100220.88
2023-02-11T08:46:54.014Z,100222.54
2023-02-11T08:52:01.857Z,100238.55
2023-02-11T08:57:06.322Z,100239.64
2023-02-11T09:02:13.735Z,100233.66
2023-02-11T09:07:17.962Z,100222.11
2023-02-11T09:12:21.741Z,100221.29
2023-02-11T09:17:25.695Z,100225.40
2023-02-11T09:22:29.595Z,100218.56
2023-02-11T09:27:33.665Z,100208.31
2023-02-11T09:32:38.021Z,100209.27
2023-02-11T09:37:42.428Z,100221.27
2023-02-11T09:42:50.922Z,100215.26
2023-02-11T09:47:59.418Z,100226.67
2023-02-11T09:53:05.570Z,100228.50
2023-02-11T09:58:14.707Z,100226.46
2023-02-11T10:03:59.347Z,100230.75
2023-02-11T10:09:33.680Z,100225.11
2023-02-11T10:14:55.415Z,100215.39
2023-02-11T10:20:17.033Z,100197.59
2023-02-11T10:25:24.342Z,100182.86
2023-02-11T10:30:32.590Z,100183.62
2023-02-11T10:35:38.096Z,100177.00
2023-02-11T10:40:43.227Z,100159.58
2023-02-11T10:45:49.923Z,100141.95
2023-02-11T10:51:09.862Z,100129.05
2023-02-11T10:56:23.191Z,100116.66
2023-02-11T11:01:41.052Z,100096.30
2023-02-11T11:06:46.264Z,100078.86
2023-02-11T11:11:53.420Z,100067.07
2023-02-11T11:16:56.673Z,100045.46
2023-02-11T11:22:01.476Z,100037.05
2023-02-11T11:27:06.517Z,100038.58
2023-02-11T11:32:19.484Z,100051.83
2023-02-11T11:37:28.466Z,100049.98
2023-02-11T11:42:34.004Z,100039.08
2023-02-11T11:47:43.144Z,100035.55
2023-02-11T11:52:54.198Z,100042.89
2023-02-11T11:57:58.423Z,100045.33
2023-02-11T12:03:39.143Z,100053.95
2023-02-11T12:08:53.359Z,100045.29
2023-02-11T12:14:12.703Z,100054.56
2023-02-11T12:19:56.040Z,100055.11
2023-02-11T12:25:13.216Z,100068.06
2023-02-11T12:30:42.670Z,100074.86
2023-02-11T12:35:58.289Z,100066.30
2023-02-11T12:41:15.148Z,100049.27
2023-02-11T12:46:34.283Z,100042.14
2023-02-11T12:51:51.846Z,100034.02
2023-02-11T12:56:58.677Z,100015.31
2023-02-11T13:02:06.724Z,99988.16
2023-02-11T13:07:16.118Z,99982.58
2023-02-11T13:12:38.924Z,99983.04
2023-02-11T13:17:49.624Z,99978.67
2023-02-11T13:28:48.256Z,99986.50
2023-02-11T13:33:56.102Z,99958.73
2023-02-11T13:39:08.150Z,99945.13
2023-02-11T13:44:26.852Z,99932.94
2023-02-11T13:49:41.071Z,99909.47
2023-02-11T13:54:51.601Z,99886.77
2023-02-11T14:00:00.577Z,99917.16
2023-02-11T14:05:41.475Z,99932.77
2023-02-11T14:10:57.664Z,99935.95
2023-02-11T14:16:10.832Z,99937.20
2023-02-11T14:21:23.300Z,99953.35
2023-02-11T14:26:45.217Z,99967.67
2023-02-11T14:32:04.012Z,99984.85
2023-02-11T14:37:28.266Z,99985.56
2023-02-11T14:42:37.313Z,99983.35
2023-02-11T14:47:52.714Z,99977.16
2023-02-11T14:53:06.774Z,99977.31
2023-02-11T14:58:20.367Z,99970.11
2023-02-11T15:03:34.393Z,99972.52
2023-02-11T15:08:48.814Z,99973.52
2023-02-11T15:13:57.560Z,99981.70
2023-02-11T15:19:08.612Z,99990.71
2023-02-11T15:24:27.695Z,99995.39
2023-02-11T15:29:40.894Z,99995.92
2023-02-11T15:34:50.233Z,99999.11
2023-02-11T15:40:09.917Z,100008.16
2023-02-11T15:45:29.101Z,100012.25
2023-02-11T15:50:40.841Z,100010.21
2023-02-11T15:55:50.943Z,100010.60
2023-02-11T16:01:00.246Z,100011.84
2023-02-11T16:06:23.444Z,100012.98
2023-02-11T16:11:34.382Z,100004.81
2023-02-11T16:16:42.091Z,100000.79
2023-02-11T16:21:50.035Z,100010.69
2023-02-11T16:27:01.015Z,100023.93
2023-02-11T16:32:17.636Z,100018.14
2023-02-11T16:37:25.658Z,100024.16
2023-02-11T16:42:33.556Z,100025.79
2023-02-11T16:47:43.407Z,100038.59
2023-02-11T16:52:52.612Z,100037.26
2023-02-11T16:58:00.261Z,100038.25
2023-02-11T17:03:11.749Z,100033.02
2023-02-11T17:08:19.711Z,100031.00
2023-02-11T17:13:27.393Z,100035.36
2023-02-11T17:18:36.300Z,100039.48
2023-02-11T17:23:45.949Z,100059.71
2023-02-11T17:28:53.999Z,100061.08
2023-02-11T17:34:01.318Z,100079.52
2023-02-11T17:39:09.437Z,100070.58
2023-02-11T17:44:16.963Z,100080.10
2023-02-11T17:49:24.411Z,100071.56
2023-02-11T17:54:31.880Z,100068.96
2023-02-11T17:59:39.926Z,100056.95
2023-02-11T18:04:47.607Z,100054.91
2023-02-11T18:09:55.399Z,100059.09
2023-02-11T18:15:03.663Z,100067.34
2023-02-11T18:20:13.281Z,100074.34
2023-02-11T18:25:21.381Z,100077.25
2023-02-11T18:30:29.323Z,100075.58
2023-02-11T18:35:40.506Z,100079.10
2023-02-11T18:40:50.752Z,100090.99
2023-02-11T18:45:58.834Z,100092.03
2023-02-11T18:51:11.916Z,100091.68
2023-02-11T18:56:21.627Z,100094.92
2023-02-11T19:01:30.582Z,100096.63
2023-02-11T19:06:39.381Z,100103.52
2023-02-11T19:11:50.628Z,100103.11
2023-02-11T19:17:01.957Z,100106.94
2023-02-11T19:22:10.791Z,100105.65
2023-02-11T19:27:18.362Z,100110.88
2023-02-11T19:32:25.519Z,100113.05
2023-02-11T19:37:32.804Z,100121.80
2023-02-11T19:42:40.708Z,100126.82
2023-02-11T19:47:48.055Z,100125.15
2023-02-11T19:52:55.851Z,100127.17
2023-02-11T19:58:03.083Z,100124.25
2023-02-11T20:03:11.388Z,100126.04
2023-02-11T20:08:19.088Z,100124.09
2023-02-11T20:13:26.446Z,100128.80
2023-02-11T20:18:33.884Z,100131.56
2023-02-11T20:23:42.492Z,100130.83
2023-02-11T20:28:51.036Z,100126.16
2023-02-11T20:33:58.441Z,100123.73
2023-02-11T20:39:05.102Z,100126.16
2023-02-11T20:44:14.225Z,100126.48
2023-02-11T20:49:24.316Z,100130.95
2023-02-11T20:54:31.869Z,100128.52
2023-02-11T20:59:40.792Z,100130.63
2023-02-11T21:04:48.242Z,100137.05
2023-02-11T21:09:55.708Z,100149.56
2023-02-11T21:15:05.350Z,100155.84
2023-02-11T21:20:14.718Z,100154.88
2023-02-11T21:25:22.864Z,100156.53
2023-02-11T21:30:30.508Z,100160.00
2023-02-11T21:35:38.883Z,100164.34
2023-02-11T21:40:46.542Z,100170.84
2023-02-11T21:45:54.791Z,100179.67
2023-02-11T21:51:05.256Z,100185.99
2023-02-11T21:56:15.795Z,100186.85
2023-02-11T22:01:25.773Z,100189.39
2023-02-11T22:06:35.670Z,100196.64
2023-02-11T22:11:43.440Z,100206.09
2023-02-11T22:16:51.549Z,100210.34
2023-02-11T22:21:59.276Z,100216.91
2023-02-11T22:27:06.654Z,100218.63
2023-02-11T22:32:14.285Z,100219.31
2023-02-11T22:37:21.691Z,100218.30
2023-02-11T22:42:28.959Z,100222.80
2023-02-11T22:47:34.513Z,100227.28
2023-02-11T22:52:42.076Z,100231.39
2023-02-11T22:57:49.472Z,100241.59
2023-02-11T23:02:57.382Z,100249.55
2023-02-11T23:08:05.002Z,100254.77
2023-02-11T23:13:12.381Z,100252.98
2023-02-11T23:18:20.030Z,100251.05
2023-02-11T23:23:27.808Z,100250.32
2023-02-11T23:28:35.418Z,100251.12
2023-02-11T23:33:44.596Z,100244.75
2023-02-11T23:38:52.901Z,100248.90
2023-02-11T23:44:01.424Z,100254.33
2023-02-11T23:49:09.128Z,100259.83
2023-02-11T23:54:17.648Z,100262.39
2023-02-11T23:59:24.953Z,100265.48
